Terminal Aerodrome Forecast
Issued by NWS

Home | Current Version | Previous Version | Text Only | Print | Product List | Glossary On
Versions: 1 2 3 4 5 6 7 8 9 10 11 12 13 14 15 16 17 18 19 20 21 22 23 24 25 26 27 28 29 30 31 32 33 34
000
FTUS44 KHGX 231133
TAFIAH
TAF
KIAH 231133Z 2312/2418 04004KT 1/4SM FG VV002
     FM231400 VRB03KT 1/2SM FG VCSH OVC003
     FM231600 14006KT 4SM BR VCSH OVC007
     FM232000 15009KT P6SM VCSH OVC020
     FM240400 15006KT 4SM BR OVC007
     FM241500 17011KT 6SM BR OVC010=

USA.gov is the U.S. government's official web portal to all federal, state and local government web resources and services.